Time;durP1;ratioP1;P1;durP2;ratioP2;P2;SDS_P1;SDS_P2;PMS_P1;PMS_P2;Temp;Humidity;BMP_temperature;BMP_pressure;BME280_temperature;BME280_humidity;BME280_pressure;Samples;Min_cycle;Max_cycle;Signal;HPM_P1;HPM_P2
2023/11/10 00:01:51;;;;;;;15.70;6.17;;;;;;;7.27;100.00;99074.59;4907260;29;20022;-77
2023/11/10 00:04:16;;;;;;;11.82;6.07;;;;;;;7.27;100.00;99069.28;4922278;28;20507;-77
2023/11/10 00:06:43;;;;;;;12.13;5.17;;;;;;;7.24;100.00;99064.34;4941392;29;20150;-77
2023/11/10 00:09:08;;;;;;;15.43;5.00;;;;;;;7.19;100.00;99065.69;4933858;29;20345;-76
2023/11/10 00:11:34;;;;;;;14.30;6.65;;;;;;;7.22;100.00;99061.03;4932930;28;20036;-77
2023/11/10 00:13:59;;;;;;;12.00;4.90;;;;;;;7.27;100.00;99056.00;4925743;29;20700;-76
2023/11/10 00:16:25;;;;;;;12.90;4.30;;;;;;;7.35;100.00;99050.59;4934975;28;20287;-77
2023/11/10 00:18:56;;;;;;;16.13;4.00;;;;;;;7.41;100.00;99060.50;4944245;29;20071;-77
2023/11/10 00:21:27;;;;;;;11.45;4.22;;;;;;;7.34;100.00;99030.38;4913500;29;20040;-76
2023/11/10 00:23:53;;;;;;;14.52;3.92;;;;;;;7.32;100.00;99037.69;4909785;29;20044;-76
2023/11/10 00:26:32;;;;;;;13.45;3.63;;;;;;;7.29;100.00;99024.78;4925135;28;20048;-77
2023/11/10 00:28:57;;;;;;;12.68;3.30;;;;;;;7.42;100.00;99024.13;4943953;28;20546;-76
2023/11/10 00:31:22;;;;;;;7.50;3.37;;;;;;;7.42;100.00;99010.84;4939462;28;20043;-77
2023/11/10 00:33:50;;;;;;;7.30;2.90;;;;;;;7.50;100.00;99016.91;4917495;28;20074;-76
2023/11/10 00:36:21;;;;;;;10.95;2.83;;;;;;;7.47;100.00;98996.03;4925142;29;20038;-77
2023/11/10 00:38:47;;;;;;;8.15;2.90;;;;;;;7.53;100.00;98991.81;4948439;28;20039;-77
2023/11/10 00:41:13;;;;;;;11.40;3.15;;;;;;;7.59;100.00;99007.81;4929536;29;20028;-76
2023/11/10 00:43:38;;;;;;;10.13;3.53;;;;;;;7.62;100.00;98988.03;4915288;28;20142;-77
2023/11/10 00:46:04;;;;;;;10.53;3.20;;;;;;;7.57;100.00;98983.28;4936322;28;20034;-77
2023/11/10 00:48:29;;;;;;;7.85;3.58;;;;;;;7.57;100.00;98977.16;4911407;29;20490;-77
2023/11/10 00:50:55;;;;;;;12.83;3.23;;;;;;;7.61;100.00;98976.59;4943782;29;20043;-77
2023/11/10 00:53:22;;;;;;;10.02;2.63;;;;;;;7.55;100.00;98976.50;4934974;29;20046;-77
2023/11/10 00:55:49;;;;;;;7.43;2.95;;;;;;;7.47;100.00;98966.81;4909064;28;20035;-77
2023/11/10 00:58:15;;;;;;;12.70;3.47;;;;;;;7.59;100.00;98965.31;4921810;29;20037;-77
2023/11/10 01:00:40;;;;;;;8.40;2.70;;;;;;;7.58;100.00;98961.00;5020703;28;20036;-77
2023/11/10 01:03:05;;;;;;;7.32;2.60;;;;;;;7.54;100.00;98959.75;4927928;29;20556;-77
2023/11/10 01:05:31;;;;;;;11.67;3.20;;;;;;;7.51;100.00;98964.59;4944269;29;20035;-77
2023/11/10 01:07:57;;;;;;;14.43;4.50;;;;;;;7.54;100.00;98966.91;4926946;28;20027;-78
2023/11/10 01:10:22;;;;;;;7.27;2.20;;;;;;;7.56;100.00;98957.75;4938050;29;20047;-77
2023/11/10 01:12:47;;;;;;;13.97;2.30;;;;;;;7.65;100.00;98963.75;4935882;29;20095;-77
2023/11/10 01:15:15;;;;;;;5.53;3.27;;;;;;;7.57;100.00;98959.38;4919750;28;20118;-77
2023/11/10 01:17:41;;;;;;;12.23;3.22;;;;;;;7.65;100.00;98963.75;4926190;29;20094;-77
2023/11/10 01:20:11;;;;;;;8.23;3.97;;;;;;;7.59;100.00;98961.84;4935595;29;20045;-76
2023/11/10 01:22:42;;;;;;;18.92;3.25;;;;;;;7.50;100.00;98974.41;4943575;29;20583;-77
2023/11/10 01:25:08;;;;;;;5.68;2.83;;;;;;;7.48;100.00;98981.75;4935574;28;20035;-77
2023/11/10 01:27:34;;;;;;;14.85;5.30;;;;;;;7.49;100.00;98986.06;4943685;28;20777;-77
2023/11/10 01:29:59;;;;;;;10.95;3.70;;;;;;;7.40;100.00;98984.50;4922818;28;20023;-77
2023/11/10 01:32:25;;;;;;;10.63;2.70;;;;;;;7.46;100.00;98994.38;4939580;28;20073;-77
2023/11/10 01:34:54;;;;;;;11.23;3.28;;;;;;;7.46;100.00;98999.69;4936490;28;20551;-77
2023/11/10 01:37:20;;;;;;;11.15;3.28;;;;;;;7.45;100.00;99000.69;4930253;29;20395;-77
2023/11/10 01:39:46;;;;;;;8.73;3.35;;;;;;;7.41;100.00;99010.03;4943574;28;20043;-77
2023/11/10 01:42:11;;;;;;;17.13;3.38;;;;;;;7.46;100.00;99007.66;4977119;28;20119;-77
2023/11/10 01:44:37;;;;;;;5.60;2.92;;;;;;;7.28;100.00;99002.75;4939442;28;20505;-78
2023/11/10 01:47:03;;;;;;;9.05;3.20;;;;;;;7.19;100.00;98998.53;4927329;29;20063;-77
2023/11/10 01:49:29;;;;;;;8.13;3.10;;;;;;;7.25;100.00;99021.66;4943164;29;20053;-77
2023/11/10 01:51:55;;;;;;;7.22;2.75;;;;;;;7.28;100.00;99023.13;4945874;28;20377;-77
2023/11/10 01:54:24;;;;;;;6.72;3.22;;;;;;;7.27;100.00;99024.16;4920053;29;20311;-77
2023/11/10 01:56:51;;;;;;;10.25;3.33;;;;;;;7.26;100.00;99019.81;4926847;29;20035;-77
2023/11/10 01:59:17;;;;;;;12.77;3.17;;;;;;;7.07;100.00;99010.56;4949566;28;20039;-77
2023/11/10 02:01:43;;;;;;;14.75;4.32;;;;;;;7.01;100.00;99013.97;4896349;29;20506;-77
2023/11/10 02:04:12;;;;;;;8.73;3.92;;;;;;;7.02;100.00;99015.63;4907997;29;20039;-77
2023/11/10 02:06:41;;;;;;;7.82;2.63;;;;;;;7.08;100.00;99010.41;4924379;28;20044;-77
2023/11/10 02:09:07;;;;;;;7.55;2.40;;;;;;;6.97;100.00;99014.31;4939255;29;20031;-77
2023/11/10 02:11:32;;;;;;;5.05;2.40;;;;;;;6.91;100.00;99012.41;4945337;28;20054;-77
2023/11/10 02:14:02;;;;;;;8.30;2.87;;;;;;;6.90;100.00;99013.41;4930525;28;20091;-77
2023/11/10 02:16:28;;;;;;;14.40;3.20;;;;;;;6.92;100.00;99018.53;4915513;29;20455;-77
2023/11/10 02:18:54;;;;;;;;;;;;;;;6.92;100.00;99024.66;4934937;28;20488;-77
2023/11/10 02:21:19;;;;;;;11.57;3.40;;;;;;;7.01;100.00;99038.69;4926458;29;19915;-77
2023/11/10 02:24:01;;;;;;;9.13;1.73;;;;;;;6.73;100.00;99031.31;4942265;28;20044;-78
2023/11/10 02:26:27;;;;;;;5.53;1.50;;;;;;;6.52;100.00;99012.59;4942148;29;20086;-77
2023/11/10 02:28:54;;;;;;;2.08;0.57;;;;;;;6.39;100.00;98997.31;4939087;28;20493;-77
2023/11/10 02:31:19;;;;;;;0.88;0.60;;;;;;;6.39;100.00;98983.22;4921869;29;20540;-77
2023/11/10 02:33:46;;;;;;;2.85;0.82;;;;;;;6.26;100.00;98984.63;4924301;29;20028;-77
2023/11/10 02:36:11;;;;;;;2.33;1.20;;;;;;;6.34;100.00;98992.53;4933467;28;20044;-77
2023/11/10 02:38:37;;;;;;;1.13;0.50;;;;;;;6.11;100.00;98978.44;4905802;29;20098;-77
2023/11/10 02:41:04;;;;;;;5.15;0.50;;;;;;;6.18;100.00;98978.56;4917133;29;20024;-77
2023/11/10 02:43:31;;;;;;;1.08;0.43;;;;;;;6.27;100.00;98983.63;4923279;28;20039;-77
2023/11/10 02:45:56;;;;;;;1.88;0.90;;;;;;;6.21;100.00;98976.41;4922243;28;20444;-77
2023/11/10 02:48:22;;;;;;;1.40;0.45;;;;;;;6.21;100.00;98975.59;4928024;28;20032;-77
2023/11/10 02:50:48;;;;;;;1.13;0.50;;;;;;;6.16;100.00;98967.31;4910769;28;20032;-77
2023/11/10 02:53:13;;;;;;;1.10;0.45;;;;;;;6.16;100.00;98976.13;4935607;28;20470;-76
2023/11/10 02:55:39;;;;;;;1.23;0.87;;;;;;;6.00;100.00;98973.59;4923500;28;20023;-76
2023/11/10 02:58:04;;;;;;;2.80;0.70;;;;;;;6.06;100.00;98978.16;4926044;28;20310;-77
2023/11/10 03:00:30;;;;;;;2.90;0.75;;;;;;;6.20;100.00;98987.16;4915197;28;20032;-77
2023/11/10 03:02:55;;;;;;;0.85;0.45;;;;;;;6.09;100.00;98981.28;4926744;29;20121;-77
2023/11/10 03:05:21;;;;;;;1.57;1.00;;;;;;;6.04;100.00;98982.81;4926377;29;20043;-77
2023/11/10 03:07:47;;;;;;;3.25;1.33;;;;;;;6.06;100.00;98988.75;4917945;29;20024;-77
2023/11/10 03:10:12;;;;;;;5.97;1.10;;;;;;;6.11;100.00;98991.69;4932973;28;20552;-77
2023/11/10 03:12:38;;;;;;;2.60;0.57;;;;;;;6.06;100.00;98986.97;4907550;29;20276;-76
2023/11/10 03:15:04;;;;;;;1.90;0.60;;;;;;;6.00;100.00;98992.94;4931934;28;20040;-78
2023/11/10 03:17:29;;;;;;;3.65;0.85;;;;;;;6.10;100.00;99003.31;4922672;29;20577;-76
2023/11/10 03:19:56;;;;;;;5.45;1.40;;;;;;;6.04;100.00;99004.84;4922407;29;20299;-77
2023/11/10 03:22:22;;;;;;;4.22;1.17;;;;;;;5.87;100.00;99001.44;4958013;28;20026;-77
2023/11/10 03:24:47;;;;;;;2.03;0.90;;;;;;;5.92;100.00;99000.91;4943756;28;20214;-77
2023/11/10 03:27:14;;;;;;;8.00;1.50;;;;;;;5.91;100.00;99005.38;4933877;28;20035;-77
2023/11/10 03:29:42;;;;;;;1.80;1.05;;;;;;;5.92;100.00;98999.09;4942247;28;20039;-76
2023/11/10 03:32:08;;;;;;;4.47;1.63;;;;;;;5.90;100.00;99011.69;4933316;28;20589;-77
2023/11/10 03:34:42;;;;;;;2.08;1.33;;;;;;;5.93;100.00;99019.28;4911286;29;20223;-77
2023/11/10 03:37:12;;;;;;;3.20;1.52;;;;;;;5.99;100.00;99023.06;4923364;29;20063;-77
2023/11/10 03:39:41;;;;;;;3.92;1.52;;;;;;;5.78;100.00;99005.13;4924039;29;20074;-77
2023/11/10 03:42:07;;;;;;;3.78;1.90;;;;;;;5.90;100.00;99014.34;4942693;28;20492;-77
2023/11/10 03:44:33;;;;;;;6.82;2.88;;;;;;;5.80;100.00;99007.59;4945680;28;20173;-77
2023/11/10 03:47:00;;;;;;;4.95;2.65;;;;;;;5.99;100.00;99014.31;4927681;29;20031;-77
2023/11/10 03:49:28;;;;;;;5.00;3.10;;;;;;;5.92;100.00;99011.50;4949649;28;20082;-77
2023/11/10 03:51:54;;;;;;;8.13;3.35;;;;;;;5.95;100.00;99018.28;4913559;28;20480;-77
2023/11/10 03:54:19;;;;;;;7.20;3.95;;;;;;;5.95;100.00;99016.50;4933587;29;20123;-76
2023/11/10 03:56:45;;;;;;;7.68;4.00;;;;;;;5.98;100.00;99026.72;4934048;28;20510;-76
2023/11/10 03:59:11;;;;;;;6.63;3.70;;;;;;;6.03;100.00;99021.72;4926011;29;20040;-77
2023/11/10 04:01:39;;;;;;;6.40;4.40;;;;;;;5.97;100.00;99013.66;4909672;29;20085;-76
2023/11/10 04:04:06;;;;;;;10.77;5.18;;;;;;;5.97;100.00;99024.25;4923559;28;20048;-76
2023/11/10 04:06:31;;;;;;;10.75;5.32;;;;;;;5.98;100.00;99021.44;4921823;29;20122;-77
2023/11/10 04:08:56;;;;;;;8.48;4.80;;;;;;;6.05;100.00;99021.56;4924573;29;20122;-77
2023/11/10 04:11:22;;;;;;;9.18;5.22;;;;;;;6.06;100.00;99012.59;4924595;28;20032;-76
2023/11/10 04:13:47;;;;;;;11.50;5.78;;;;;;;6.18;100.00;99023.63;4926073;29;20079;-77
2023/11/10 04:16:20;;;;;;;9.88;6.03;;;;;;;6.07;100.00;99020.38;4944357;29;20066;-76
2023/11/10 04:18:50;;;;;;;10.68;6.68;;;;;;;6.17;100.00;99028.09;4925090;28;20053;-77
2023/11/10 04:21:21;;;;;;;10.27;5.80;;;;;;;6.20;100.00;99030.38;4943931;29;20402;-76
2023/11/10 04:23:46;;;;;;;12.60;6.88;;;;;;;6.24;100.00;99034.34;4944623;28;20054;-77
2023/11/10 04:26:13;;;;;;;11.50;6.83;;;;;;;6.16;100.00;99015.88;4927825;29;20028;-77
2023/11/10 04:28:39;;;;;;;12.48;7.05;;;;;;;6.36;100.00;99028.63;4927778;29;20046;-77
2023/11/10 04:31:05;;;;;;;16.98;7.28;;;;;;;6.31;100.00;99007.97;4927942;29;20073;-77
2023/11/10 04:33:31;;;;;;;14.27;7.25;;;;;;;6.35;100.00;99014.56;4944392;29;20040;-76
2023/11/10 04:35:56;;;;;;;14.20;8.07;;;;;;;6.44;100.00;99018.81;4943885;29;20024;-77
2023/11/10 04:38:22;;;;;;;15.95;8.32;;;;;;;6.24;100.00;99005.19;4944369;29;20071;-78
2023/11/10 04:40:49;;;;;;;17.77;9.32;;;;;;;6.44;100.00;99018.81;4928740;29;20035;-77
2023/11/10 04:43:14;;;;;;;;;;;;;;;6.33;100.00;99003.31;4929740;29;20042;-77
2023/11/10 04:45:40;;;;;;;13.38;7.63;;;;;;;6.37;100.00;99009.91;4926205;28;20478;-76
2023/11/10 04:48:05;;;;;;;12.75;8.30;;;;;;;6.48;100.00;99006.00;4931554;29;20850;-77
2023/11/10 04:50:30;;;;;;;15.07;8.07;;;;;;;6.51;100.00;99006.47;4911928;28;20075;-77
2023/11/10 04:52:56;;;;;;;11.93;7.87;;;;;;;6.54;100.00;99008.75;4943254;29;20038;-77
2023/11/10 04:55:25;;;;;;;11.80;7.82;;;;;;;6.54;100.00;99006.13;4940488;28;20036;-76
2023/11/10 04:57:51;;;;;;;11.10;8.30;;;;;;;6.52;100.00;98999.34;4912834;28;20103;-77
2023/11/10 05:00:17;;;;;;;13.35;8.73;;;;;;;6.44;100.00;98992.28;4934272;29;20492;-77
2023/11/10 05:02:46;;;;;;;11.32;7.55;;;;;;;6.46;100.00;98994.75;4925558;28;20124;-77
2023/11/10 05:05:14;;;;;;;11.80;7.70;;;;;;;6.39;100.00;98986.72;4929079;29;20039;-77
2023/11/10 05:07:40;;;;;;;12.93;8.60;;;;;;;6.52;100.00;98986.09;4943128;29;20038;-77
2023/11/10 05:10:06;;;;;;;10.45;7.90;;;;;;;6.57;100.00;98989.03;4928663;29;20048;-77
2023/11/10 05:12:34;;;;;;;13.73;8.48;;;;;;;6.70;100.00;98989.25;4935772;29;20056;-77
2023/11/10 05:15:00;;;;;;;15.23;7.80;;;;;;;6.57;100.00;98978.41;4919539;28;20451;-78
2023/11/10 05:17:25;;;;;;;11.30;7.67;;;;;;;6.53;100.00;98979.78;4928002;28;20044;-77
2023/11/10 05:19:52;;;;;;;15.90;8.50;;;;;;;6.47;100.00;98977.84;4927778;29;20414;-78
2023/11/10 05:22:17;;;;;;;12.02;7.07;;;;;;;6.57;100.00;98983.72;4947427;28;20048;-77
2023/11/10 05:24:43;;;;;;;15.47;9.27;;;;;;;6.48;100.00;98982.13;4926594;29;20109;-77
2023/11/10 05:27:09;;;;;;;15.05;7.78;;;;;;;6.66;100.00;98990.59;4917558;28;20334;-77
2023/11/10 05:29:35;;;;;;;14.15;8.82;;;;;;;6.67;100.00;98984.31;4920783;28;20051;-78
2023/11/10 05:32:01;;;;;;;12.77;8.05;;;;;;;6.41;100.00;98973.25;4912116;28;20023;-77
2023/11/10 05:34:26;;;;;;;11.85;8.05;;;;;;;6.60;100.00;98993.13;4920070;29;20488;-78
2023/11/10 05:36:51;;;;;;;14.47;8.03;;;;;;;6.58;100.00;98993.34;4928167;29;20131;-78
2023/11/10 05:39:17;;;;;;;14.43;8.10;;;;;;;6.52;100.00;98994.03;4934559;28;20078;-77
2023/11/10 05:41:44;;;;;;;12.07;7.97;;;;;;;6.60;100.00;99001.91;4910995;29;20588;-77
2023/11/10 05:44:10;;;;;;;11.57;7.90;;;;;;;6.51;100.00;98995.06;4924773;29;20067;-76
2023/11/10 05:46:36;;;;;;;17.00;9.68;;;;;;;6.58;100.00;99001.28;4910998;29;20050;-76
2023/11/10 05:49:02;;;;;;;11.63;8.30;;;;;;;6.47;100.00;98993.75;4917242;29;20048;-77
2023/11/10 05:51:28;;;;;;;14.30;7.80;;;;;;;6.47;100.00;99004.38;4923473;28;20036;-77
2023/11/10 05:53:53;;;;;;;16.95;8.85;;;;;;;6.58;100.00;99005.75;4926696;29;20082;-77
2023/11/10 05:56:18;;;;;;;13.20;8.87;;;;;;;6.62;100.00;99007.88;4914114;29;20031;-77
2023/11/10 05:59:03;;;;;;;14.40;8.38;;;;;;;6.47;100.00;99009.66;4934711;28;20047;-76
2023/11/10 06:01:47;;;;;;;15.43;10.10;;;;;;;6.61;100.00;99016.84;4939960;28;20466;-77
2023/11/10 06:04:31;;;;;;;14.05;9.45;;;;;;;6.51;100.00;99021.56;4928209;29;20101;-76
2023/11/10 06:07:16;;;;;;;14.88;8.68;;;;;;;6.38;100.00;99010.72;4928251;29;20126;-76
2023/11/10 06:10:00;;;;;;;13.18;8.75;;;;;;;6.47;100.00;99012.31;4928109;29;20047;-78
2023/11/10 06:12:44;;;;;;;14.65;9.27;;;;;;;6.53;100.00;99008.94;4926727;29;20049;-77
2023/11/10 06:15:12;;;;;;;14.13;8.53;;;;;;;6.55;100.00;99017.53;4942906;29;20044;-77
2023/11/10 06:17:38;;;;;;;14.50;9.00;;;;;;;6.64;100.00;99011.16;4927565;29;20473;-77
2023/11/10 06:20:03;;;;;;;13.38;8.80;;;;;;;6.52;100.00;98991.38;4926901;29;20032;-77
2023/11/10 06:22:29;;;;;;;14.52;9.77;;;;;;;6.57;100.00;99004.13;4942423;29;20024;-78
2023/11/10 06:24:54;;;;;;;16.60;9.80;;;;;;;6.67;100.00;99008.16;4934266;28;20427;-77
2023/11/10 06:27:21;;;;;;;13.80;9.13;;;;;;;6.61;100.00;99005.41;4918563;28;20035;-77
2023/11/10 06:29:46;;;;;;;17.63;10.30;;;;;;;6.75;100.00;99013.38;4926516;29;20416;-77
2023/11/10 06:32:12;;;;;;;13.23;8.80;;;;;;;6.66;100.00;99014.47;4968173;28;20027;-77
2023/11/10 06:34:37;;;;;;;15.85;9.52;;;;;;;6.57;100.00;99014.72;4923321;28;20492;-77
2023/11/10 06:37:02;;;;;;;14.97;9.47;;;;;;;6.72;100.00;99026.19;4925304;28;20563;-77
2023/11/10 06:39:28;;;;;;;15.37;10.00;;;;;;;6.64;100.00;99027.06;4918915;28;20070;-77
2023/11/10 06:41:53;;;;;;;18.27;10.87;;;;;;;6.70;100.00;99026.38;4907852;28;20070;-77
2023/11/10 06:44:22;;;;;;;15.73;10.40;;;;;;;6.78;100.00;99038.72;4925881;28;20035;-77
2023/11/10 06:46:48;;;;;;;17.45;11.52;;;;;;;6.79;100.00;99029.78;4924212;29;20044;-77
2023/11/10 06:49:13;;;;;;;17.73;12.03;;;;;;;6.73;100.00;99036.59;4926202;29;20439;-78
2023/11/10 06:51:40;;;;;;;16.85;9.95;;;;;;;6.53;100.00;99030.16;4946366;28;20294;-77
2023/11/10 06:54:06;;;;;;;16.90;10.00;;;;;;;6.70;100.00;99044.94;4930649;29;20496;-78
2023/11/10 06:56:32;;;;;;;16.10;10.32;;;;;;;6.72;100.00;99045.59;4932766;29;20027;-78
2023/11/10 06:58:57;;;;;;;16.80;9.95;;;;;;;6.83;100.00;99046.16;4919457;29;20054;-78
2023/11/10 07:01:22;;;;;;;17.97;11.03;;;;;;;6.70;100.00;99034.31;4926003;29;20897;-76
2023/11/10 07:03:48;;;;;;;19.00;11.23;;;;;;;6.66;100.00;99043.63;4925797;29;20035;-77
2023/11/10 07:06:13;;;;;;;13.80;9.38;;;;;;;6.55;100.00;99044.06;4932392;28;20032;-77
2023/11/10 07:08:39;;;;;;;22.33;11.43;;;;;;;6.75;100.00;99055.81;4907411;29;20102;-76
2023/11/10 07:11:07;;;;;;;16.83;9.38;;;;;;;6.71;100.00;99037.78;4908328;29;20047;-77
2023/11/10 07:13:33;;;;;;;16.52;9.27;;;;;;;6.75;100.00;99061.13;4935594;29;20082;-77
2023/11/10 07:15:58;;;;;;;18.98;10.98;;;;;;;6.73;100.00;99049.88;5009757;28;20059;-77
2023/11/10 07:18:26;;;;;;;15.77;9.07;;;;;;;6.85;100.00;99052.09;4934006;28;20071;-79
2023/11/10 07:20:52;;;;;;;15.18;9.50;;;;;;;6.76;100.00;99046.03;4927471;29;20109;-77
2023/11/10 07:23:19;;;;;;;14.30;9.23;;;;;;;6.59;100.00;99024.13;4913247;29;20032;-79
2023/11/10 07:25:44;;;;;;;;;;;;;;;6.70;100.00;99025.56;5005353;28;20090;-78
2023/11/10 07:28:10;;;;;;;16.48;8.82;;;;;;;6.65;100.00;99028.75;4910489;29;19919;-77
2023/11/10 07:30:37;;;;;;;19.13;8.48;;;;;;;6.60;100.00;99028.44;4926556;28;20554;-79
2023/11/10 07:33:03;;;;;;;16.08;9.23;;;;;;;6.99;100.00;99046.00;4918301;28;20019;-78
2023/11/10 07:35:28;;;;;;;16.58;9.25;;;;;;;7.26;100.00;99041.06;4937525;28;20036;-78
2023/11/10 07:37:54;;;;;;;10.50;6.77;;;;;;;6.98;100.00;99015.97;4939364;28;20114;-77
2023/11/10 07:40:20;;;;;;;12.93;8.33;;;;;;;7.09;100.00;99012.03;4933198;28;20115;-78
2023/11/10 07:42:46;;;;;;;13.98;6.75;;;;;;;7.06;100.00;99009.75;4910241;29;20055;-77
2023/11/10 07:45:16;;;;;;;12.40;7.80;;;;;;;6.86;100.00;99003.34;4926117;28;20031;-78
2023/11/10 07:47:45;;;;;;;12.23;8.27;;;;;;;6.98;100.00;99017.81;4922855;29;20032;-78
2023/11/10 07:50:11;;;;;;;13.68;7.78;;;;;;;6.90;100.00;99002.78;4969517;28;20036;-80
2023/11/10 07:52:37;;;;;;;12.88;8.30;;;;;;;6.90;100.00;99004.63;4913552;29;20036;-77
2023/11/10 07:55:04;;;;;;;;;;;;;;;6.78;100.00;99006.06;4927612;29;20024;-77
2023/11/10 07:57:30;;;;;;;12.20;7.25;;;;;;;6.76;100.00;99009.72;4919467;28;19969;-77
2023/11/10 07:59:55;;;;;;;13.02;6.95;;;;;;;6.67;100.00;98997.56;4925424;29;20032;-80
2023/11/10 08:02:21;;;;;;;10.50;6.63;;;;;;;6.71;100.00;99009.44;4946641;28;20408;-77
2023/11/10 08:04:47;;;;;;;11.90;6.65;;;;;;;6.81;100.00;99018.97;4934239;28;20485;-78
2023/11/10 08:07:13;;;;;;;10.65;6.90;;;;;;;6.81;100.00;99016.31;4929291;29;20496;-79
2023/11/10 08:09:38;;;;;;;10.05;6.90;;;;;;;6.76;100.00;99014.19;4929393;29;20027;-76
2023/11/10 08:12:04;;;;;;;13.13;6.87;;;;;;;6.84;100.00;99010.66;4926204;28;20039;-76
2023/11/10 08:14:29;;;;;;;11.27;7.43;;;;;;;6.91;100.00;99011.59;4921781;28;20275;-78
2023/11/10 08:16:55;;;;;;;9.83;6.70;;;;;;;6.94;100.00;99016.53;4945327;29;20043;-78
2023/11/10 08:19:20;;;;;;;10.90;7.07;;;;;;;7.02;100.00;99023.56;4918711;29;20102;-77
2023/11/10 08:21:45;;;;;;;11.05;6.60;;;;;;;6.86;100.00;99004.19;4923524;28;20044;-79
2023/11/10 08:24:11;;;;;;;13.33;5.93;;;;;;;6.91;100.00;99006.28;4945717;29;20060;-79
2023/11/10 08:26:38;;;;;;;10.17;6.97;;;;;;;6.95;100.00;99011.06;4952398;28;20518;-77
2023/11/10 08:29:04;;;;;;;11.77;6.00;;;;;;;6.83;100.00;99001.88;4894502;28;20272;-77
2023/11/10 08:31:29;;;;;;;12.23;6.65;;;;;;;7.04;100.00;99017.06;4932351;28;20046;-79
2023/11/10 08:33:54;;;;;;;8.63;5.67;;;;;;;7.01;100.00;99006.03;4937340;28;20507;-77
2023/11/10 08:36:22;;;;;;;8.93;5.60;;;;;;;6.97;100.00;99001.06;4945188;29;20052;-77
2023/11/10 08:38:48;;;;;;;8.20;5.28;;;;;;;6.95;100.00;98997.78;4945042;29;20043;-78
2023/11/10 08:41:14;;;;;;;7.03;4.68;;;;;;;6.93;100.00;98991.00;4916909;29;20024;-77
2023/11/10 08:43:41;;;;;;;15.10;5.40;;;;;;;7.19;100.00;99004.66;4910366;29;20040;-78
2023/11/10 08:46:07;;;;;;;8.55;5.57;;;;;;;7.14;100.00;98991.13;4918479;28;20063;-78
2023/11/10 08:48:32;;;;;;;14.93;6.40;;;;;;;7.16;100.00;99005.03;4933939;29;20031;-77
2023/11/10 08:50:58;;;;;;;11.83;6.13;;;;;;;7.12;100.00;98992.31;4948947;28;20039;-78
2023/11/10 08:53:24;;;;;;;10.38;5.32;;;;;;;7.22;100.00;99008.75;4933970;28;20035;-77
2023/11/10 08:55:49;;;;;;;10.60;6.18;;;;;;;7.18;100.00;99002.16;4934747;28;20038;-78
2023/11/10 08:58:16;;;;;;;11.52;5.63;;;;;;;7.11;100.00;99010.03;4945880;28;20032;-76
2023/11/10 09:00:43;;;;;;;9.55;6.45;;;;;;;6.98;100.00;99017.81;4935880;28;20720;-78
2023/11/10 09:03:08;;;;;;;9.93;4.72;;;;;;;7.05;100.00;99018.75;4934112;28;20036;-78
2023/11/10 09:05:34;;;;;;;25.38;6.53;;;;;;;7.06;100.00;99020.38;4926284;28;20024;-78
2023/11/10 09:08:00;;;;;;;10.43;4.80;;;;;;;7.04;100.00;99017.06;4941499;29;20453;-78
2023/11/10 09:10:26;;;;;;;11.95;5.28;;;;;;;7.14;100.00;99024.75;4931013;28;20070;-80
2023/11/10 09:12:51;;;;;;;11.95;5.22;;;;;;;7.25;100.00;99028.81;4925408;29;20046;-78
2023/11/10 09:15:17;;;;;;;7.93;4.38;;;;;;;7.32;100.00;99029.72;4933915;28;20059;-77
2023/11/10 09:17:49;;;;;;;9.75;4.82;;;;;;;7.20;100.00;99002.81;4910813;29;20493;-76
2023/11/10 09:20:15;;;;;;;7.07;3.65;;;;;;;7.34;100.00;99001.16;4933083;29;20047;-77
2023/11/10 09:22:40;;;;;;;;;;;;;;;7.46;100.00;99002.34;4941583;28;20103;-79
2023/11/10 09:25:09;;;;;;;9.82;4.03;;;;;;;7.60;100.00;99003.31;4917930;28;20009;-79
2023/11/10 09:27:34;;;;;;;6.20;3.90;;;;;;;7.16;100.00;98973.19;4928381;29;20040;-78
2023/11/10 09:30:00;;;;;;;8.55;4.43;;;;;;;7.36;100.00;99001.81;4910254;29;20028;-77
2023/11/10 09:32:25;;;;;;;8.37;3.70;;;;;;;7.19;100.00;98978.09;4920134;28;20566;-79
2023/11/10 09:34:51;;;;;;;9.27;3.85;;;;;;;7.35;100.00;98985.06;4910538;29;20086;-80
2023/11/10 09:37:16;;;;;;;8.38;4.07;;;;;;;7.16;100.00;98967.88;4939838;28;20044;-77
2023/11/10 09:39:43;;;;;;;6.82;3.25;;;;;;;7.33;100.00;98980.94;4928176;28;20024;-78
2023/11/10 09:42:09;;;;;;;6.22;3.83;;;;;;;7.35;100.00;98976.25;4943932;29;20040;-76
2023/11/10 09:44:55;;;;;;;6.45;3.40;;;;;;;7.29;100.00;98959.25;4937066;28;20039;-77
2023/11/10 09:47:23;;;;;;;6.75;3.03;;;;;;;7.36;100.00;98967.28;4912197;28;20043;-77
2023/11/10 09:49:49;;;;;;;9.55;3.05;;;;;;;7.36;100.00;98983.22;4943585;29;20024;-77
2023/11/10 09:52:20;;;;;;;7.75;3.50;;;;;;;7.48;100.00;98967.66;4933370;28;20044;-77
2023/11/10 09:54:50;;;;;;;9.27;3.13;;;;;;;7.36;100.00;98952.19;4917343;28;20036;-76
2023/11/10 09:57:17;;;;;;;5.43;2.80;;;;;;;7.51;100.00;98962.75;4936045;28;20052;-76
2023/11/10 09:59:44;;;;;;;7.75;3.17;;;;;;;7.09;100.00;98929.78;4910613;29;20046;-78
2023/11/10 10:02:11;;;;;;;8.95;3.00;;;;;;;7.32;100.00;98961.50;4943358;28;20063;-76
2023/11/10 10:04:46;;;;;;;10.38;4.40;;;;;;;7.29;100.00;98950.47;4928757;28;20487;-76
2023/11/10 10:07:13;;;;;;;6.03;3.10;;;;;;;7.33;100.00;98960.53;4929200;29;20094;-77
2023/11/10 10:09:43;;;;;;;10.25;3.53;;;;;;;7.45;100.00;98950.25;4924788;28;20054;-76
2023/11/10 10:12:10;;;;;;;6.57;3.35;;;;;;;7.52;100.00;98948.50;4916570;29;20060;-77
2023/11/10 10:14:37;;;;;;;7.35;2.95;;;;;;;7.39;100.00;98933.22;4917010;28;20078;-77
2023/11/10 10:17:03;;;;;;;;;;;;;;;7.40;100.00;98942.84;4910935;29;20042;-77
2023/11/10 10:19:29;;;;;;;8.32;2.80;;;;;;;7.47;100.00;98947.41;4937701;28;19919;-77
2023/11/10 10:21:55;;;;;;;12.02;3.38;;;;;;;7.27;100.00;98916.13;4926756;28;20077;-77
2023/11/10 10:24:21;;;;;;;5.80;2.70;;;;;;;7.44;100.00;98953.91;4931787;28;20330;-79
2023/11/10 10:26:47;;;;;;;7.40;2.72;;;;;;;7.40;100.00;98932.22;4913950;29;20036;-77
2023/11/10 10:29:14;;;;;;;4.40;2.10;;;;;;;7.47;100.00;98921.69;4926938;29;20032;-76
2023/11/10 10:31:40;;;;;;;6.90;2.63;;;;;;;7.32;100.00;98912.91;4927842;29;20024;-76
2023/11/10 10:34:06;;;;;;;12.98;3.95;;;;;;;7.45;100.00;98929.00;4923639;28;20031;-78
2023/11/10 10:36:32;;;;;;;9.32;3.67;;;;;;;7.25;100.00;98902.22;4921982;28;20038;-76
2023/11/10 10:39:00;;;;;;;7.95;3.05;;;;;;;7.48;100.00;98933.13;4930050;29;20039;-76
2023/11/10 10:41:26;;;;;;;7.28;2.72;;;;;;;7.50;100.00;98916.00;4931746;28;20637;-77
2023/11/10 10:43:52;;;;;;;5.57;2.60;;;;;;;7.45;100.00;98906.97;4933776;29;20044;-77
2023/11/10 10:46:19;;;;;;;;;;;;;;;7.47;100.00;98921.69;4933200;29;20732;-77
2023/11/10 10:48:49;;;;;;;4.70;3.22;;;;;;;7.57;100.00;98930.16;4931057;29;19918;-76
2023/11/10 10:51:17;;;;;;;5.72;2.58;;;;;;;7.55;100.00;98908.28;4942055;28;20039;-76
2023/11/10 10:53:44;;;;;;;9.40;3.22;;;;;;;7.86;100.00;98930.25;4935323;28;20075;-77
2023/11/10 10:56:14;;;;;;;5.80;2.53;;;;;;;7.67;100.00;98886.53;4928149;29;20036;-76
2023/11/10 10:58:40;;;;;;;4.47;2.33;;;;;;;7.61;100.00;98896.09;4918855;29;20036;-76
2023/11/10 11:01:08;;;;;;;5.57;3.15;;;;;;;7.57;100.00;98879.72;4934401;29;20027;-78
2023/11/10 11:03:52;;;;;;;5.03;2.78;;;;;;;7.76;100.00;98896.03;4938036;28;20054;-76
2023/11/10 11:06:51;;;;;;;8.10;2.95;;;;;;;7.70;100.00;98891.47;4931670;28;20043;-76
2023/11/10 11:09:46;;;;;;;7.95;2.60;;;;;;;7.64;100.00;98887.75;4935133;29;20036;-75
2023/11/10 11:12:55;;;;;;;4.60;3.15;;;;;;;7.59;100.00;98890.97;4927441;29;20047;-76
2023/11/10 11:15:42;;;;;;;3.55;2.63;;;;;;;7.79;100.00;98893.00;4918656;28;20056;-77
2023/11/10 11:18:37;;;;;;;4.63;3.10;;;;;;;7.73;100.00;98869.88;4927000;28;20074;-76
2023/11/10 11:21:04;;;;;;;;;;;;;;;7.74;100.00;98879.47;4944647;28;20502;-76
2023/11/10 11:23:33;;;;;;;6.75;2.92;;;;;;;7.75;100.00;98873.13;4933447;29;19911;-76
2023/11/10 11:26:04;;;;;;;6.72;2.90;;;;;;;7.89;100.00;98885.53;4933681;28;20096;-76
2023/11/10 11:28:34;;;;;;;7.47;3.38;;;;;;;8.07;100.00;98879.75;4917606;28;20043;-76
2023/11/10 11:31:10;;;;;;;7.32;3.00;;;;;;;7.92;100.00;98849.78;4910859;28;20031;-76
2023/11/10 11:33:46;;;;;;;6.47;3.17;;;;;;;7.86;100.00;98851.38;4934178;28;20405;-78